createdAt,value
2023-08-30T00:03:44.360Z,43.03
2023-08-30T00:09:46.391Z,41.15
2023-08-30T00:15:49.813Z,39.83
2023-08-30T00:21:51.850Z,42.80
2023-08-30T00:27:53.865Z,37.65
2023-08-30T00:33:57.400Z,37.50
2023-08-30T00:40:01.072Z,38.72
2023-08-30T00:46:04.601Z,43.03
2023-08-30T00:52:10.084Z,42.70
2023-08-30T00:58:12.584Z,43.95
2023-08-30T01:04:14.835Z,36.00
2023-08-30T01:10:18.515Z,40.30
2023-08-30T01:16:22.852Z,39.00
2023-08-30T01:22:39.261Z,43.30
2023-08-30T01:28:43.903Z,38.97
2023-08-30T01:34:48.190Z,35.50
2023-08-30T01:40:51.079Z,43.85
2023-08-30T01:46:54.934Z,41.00
2023-08-30T01:52:57.591Z,40.67
2023-08-30T01:58:59.727Z,40.42
2023-08-30T02:05:03.303Z,39.33
2023-08-30T02:11:10.410Z,38.25
2023-08-30T02:17:34.429Z,38.53
2023-08-30T02:23:38.034Z,40.50
2023-08-30T02:29:40.052Z,35.55
2023-08-30T02:35:42.109Z,36.38
2023-08-30T02:41:45.661Z,35.65
2023-08-30T02:47:48.204Z,33.75
2023-08-30T02:53:50.249Z,30.95
2023-08-30T02:59:53.826Z,33.33
2023-08-30T03:05:55.983Z,39.65
2023-08-30T03:11:57.892Z,35.20
2023-08-30T03:18:02.195Z,33.75
2023-08-30T03:24:04.606Z,34.88
2023-08-30T03:30:07.730Z,30.90
2023-08-30T03:36:12.669Z,30.92
2023-08-30T03:48:16.672Z,33.65
2023-08-30T03:54:20.226Z,28.40
2023-08-30T04:00:22.472Z,25.55
2023-08-30T04:06:24.530Z,24.38
2023-08-30T04:12:28.023Z,36.45
2023-08-30T04:18:29.919Z,31.42
2023-08-30T04:24:32.202Z,41.38
2023-08-30T04:30:37.945Z,33.88
2023-08-30T04:36:40.031Z,32.20
2023-08-30T04:42:42.368Z,33.63
2023-08-30T04:48:45.945Z,27.83
2023-08-30T04:54:49.889Z,30.08
2023-08-30T05:00:51.915Z,29.13
2023-08-30T05:06:55.541Z,25.90
2023-08-30T05:12:57.586Z,31.30
2023-08-30T05:18:59.607Z,28.15
2023-08-30T05:25:03.284Z,30.08
2023-08-30T05:31:06.847Z,25.25
2023-08-30T05:37:09.060Z,26.08
2023-08-30T05:43:12.684Z,26.38
2023-08-30T05:49:14.826Z,23.45
2023-08-30T05:55:17.085Z,24.52
2023-08-30T06:01:21.379Z,27.38
2023-08-30T06:07:23.343Z,25.02
2023-08-30T06:13:25.894Z,23.92
2023-08-30T06:19:31.081Z,21.67
2023-08-30T06:25:33.318Z,23.92
2023-08-30T06:31:35.415Z,21.85
2023-08-30T06:37:38.959Z,20.70
2023-08-30T06:43:41.128Z,20.50
2023-08-30T06:49:43.251Z,20.48
2023-08-30T06:55:46.884Z,19.23
2023-08-30T07:01:50.467Z,20.83
2023-08-30T07:07:53.748Z,21.98
2023-08-30T07:13:57.129Z,20.98
2023-08-30T07:19:59.398Z,16.52
2023-08-30T07:26:01.463Z,14.38
2023-08-30T07:32:05.792Z,15.45
2023-08-30T07:38:17.250Z,11.70
2023-08-30T07:44:21.203Z,13.55
2023-08-30T07:50:28.856Z,12.75
2023-08-30T07:56:31.411Z,10.85
2023-08-30T08:02:33.338Z,11.52
2023-08-30T08:08:37.628Z,11.82
2023-08-30T08:14:39.747Z,19.17
2023-08-30T08:20:41.742Z,11.43
2023-08-30T08:26:45.284Z,12.23
2023-08-30T08:32:48.290Z,11.13
2023-08-30T08:38:50.949Z,13.93
2023-08-30T08:50:58.504Z,10.25
2023-08-30T08:57:02.048Z,12.60
2023-08-30T09:03:08.324Z,14.30
2023-08-30T09:09:11.669Z,8.07
2023-08-30T09:15:13.601Z,11.35
2023-08-30T09:21:18.474Z,8.23
2023-08-30T09:27:00.012Z,9.63
2023-08-30T09:32:03.968Z,10.70
2023-08-30T09:37:09.147Z,9.70
2023-08-30T09:42:14.496Z,8.95
2023-08-30T09:47:19.253Z,10.02
2023-08-30T09:52:26.907Z,10.75
2023-08-30T09:57:31.511Z,11.82
2023-08-30T10:02:36.097Z,8.68
2023-08-30T10:07:41.662Z,10.52
2023-08-30T10:13:09.607Z,10.18
2023-08-30T10:18:17.683Z,9.05
2023-08-30T10:23:24.042Z,11.93
2023-08-30T10:28:28.975Z,11.07
2023-08-30T10:33:32.618Z,9.55
2023-08-30T10:38:40.780Z,12.07
2023-08-30T10:43:53.816Z,9.38
2023-08-30T10:48:58.980Z,12.63
2023-08-30T10:54:12.086Z,10.15
2023-08-30T10:59:19.736Z,11.05
2023-08-30T11:04:24.694Z,9.10
2023-08-30T11:09:29.550Z,9.45
2023-08-30T11:14:33.065Z,9.55
2023-08-30T11:19:36.441Z,9.15
2023-08-30T11:24:42.974Z,8.70
2023-08-30T11:29:47.735Z,8.32
2023-08-30T11:34:59.018Z,9.63
2023-08-30T11:40:07.751Z,10.48
2023-08-30T11:45:12.840Z,9.02
2023-08-30T11:50:16.857Z,8.15
2023-08-30T11:55:22.781Z,8.15
2023-08-30T12:00:27.374Z,6.90
2023-08-30T12:05:35.062Z,12.38
2023-08-30T12:10:40.379Z,6.07
2023-08-30T12:15:44.013Z,5.63
2023-08-30T12:20:57.782Z,8.80
2023-08-30T12:26:07.105Z,7.07
2023-08-30T12:31:11.530Z,7.43
2023-08-30T12:36:15.023Z,10.95
2023-08-30T12:41:22.017Z,10.35
2023-08-30T12:46:25.402Z,6.60
2023-08-30T12:51:28.758Z,8.38
2023-08-30T12:56:33.650Z,11.18
2023-08-30T13:01:39.339Z,5.38
2023-08-30T13:06:44.658Z,8.75
2023-08-30T13:11:49.441Z,9.07
2023-08-30T13:16:53.307Z,10.52
2023-08-30T13:21:57.004Z,12.88
2023-08-30T13:27:01.920Z,7.15
2023-08-30T13:32:05.678Z,8.00
2023-08-30T13:37:09.350Z,7.28
2023-08-30T13:42:14.113Z,8.85
2023-08-30T13:47:18.095Z,7.10
2023-08-30T13:52:21.569Z,7.53
2023-08-30T13:57:26.353Z,8.18
2023-08-30T14:02:30.030Z,8.25
2023-08-30T14:07:33.510Z,8.30
2023-08-30T14:12:38.313Z,7.47
2023-08-30T14:17:42.209Z,10.10
2023-08-30T14:22:45.815Z,8.93
2023-08-30T14:27:50.805Z,7.85
2023-08-30T14:32:54.276Z,12.32
2023-08-30T14:37:57.671Z,16.55
2023-08-30T14:43:02.428Z,18.60
2023-08-30T14:48:06.571Z,10.73
2023-08-30T14:53:10.025Z,7.45
2023-08-30T14:58:15.308Z,16.02
2023-08-30T15:03:19.039Z,12.57
2023-08-30T15:08:22.664Z,11.68
2023-08-30T15:13:28.411Z,10.02
2023-08-30T15:18:32.141Z,14.90
2023-08-30T15:23:38.793Z,21.02
2023-08-30T15:28:44.633Z,12.07
2023-08-30T15:33:49.075Z,12.52
2023-08-30T15:38:52.576Z,12.40
2023-08-30T15:43:57.485Z,14.50
2023-08-30T15:49:01.014Z,15.93
2023-08-30T15:54:04.690Z,13.68
2023-08-30T15:59:09.703Z,14.73
2023-08-30T16:04:13.494Z,13.48
2023-08-30T16:09:17.248Z,14.60
2023-08-30T16:15:21.067Z,16.05
2023-08-30T16:21:23.528Z,21.80
2023-08-30T16:27:25.670Z,16.50
2023-08-30T16:32:44.307Z,17.90
2023-08-30T16:38:46.518Z,21.83
2023-08-30T16:44:49.312Z,31.17
2023-08-30T16:50:52.766Z,24.08
2023-08-30T16:56:55.283Z,26.95
2023-08-30T17:02:57.595Z,23.73
2023-08-30T17:09:01.013Z,20.15
2023-08-30T17:15:04.504Z,19.33
2023-08-30T17:21:11.421Z,22.13
2023-08-30T17:27:15.074Z,17.67
2023-08-30T17:33:17.328Z,21.13
2023-08-30T17:39:19.638Z,23.67
2023-08-30T17:45:23.040Z,24.50
2023-08-30T17:51:25.880Z,21.48
2023-08-30T17:57:28.002Z,25.52
2023-08-30T18:03:31.950Z,19.27
2023-08-30T18:09:34.104Z,18.53
2023-08-30T18:15:38.006Z,19.35
2023-08-30T18:21:41.823Z,21.40
2023-08-30T18:27:44.979Z,21.48
2023-08-30T18:33:46.937Z,28.98
2023-08-30T18:39:50.723Z,21.23
2023-08-30T18:45:52.845Z,20.10
2023-08-30T18:51:54.973Z,19.15
2023-08-30T18:57:58.706Z,21.42
2023-08-30T19:04:00.834Z,22.75
2023-08-30T19:10:03.072Z,17.25
2023-08-30T19:16:07.493Z,16.25
2023-08-30T19:22:09.603Z,15.17
2023-08-30T19:28:11.906Z,14.15
2023-08-30T19:34:15.385Z,14.88
2023-08-30T19:40:17.551Z,17.73
2023-08-30T19:46:19.567Z,13.40
2023-08-30T19:52:23.082Z,15.00
2023-08-30T19:58:25.458Z,15.25
2023-08-30T20:04:27.525Z,13.98
2023-08-30T20:10:31.038Z,13.45
2023-08-30T20:16:33.060Z,15.25
2023-08-30T20:22:42.332Z,17.55
2023-08-30T20:28:47.634Z,13.18
2023-08-30T20:34:49.850Z,19.33
2023-08-30T20:40:52.680Z,16.60
2023-08-30T20:46:57.976Z,15.10
2023-08-30T20:53:01.722Z,15.65
2023-08-30T20:59:06.472Z,18.65
2023-08-30T21:11:13.109Z,22.05
2023-08-30T21:17:15.135Z,22.73
2023-08-30T21:23:43.689Z,22.45
2023-08-30T21:29:45.874Z,22.65
2023-08-30T21:35:48.564Z,23.55
2023-08-30T21:41:51.901Z,25.67
2023-08-30T21:47:53.942Z,19.42
2023-08-30T21:53:56.343Z,24.30
2023-08-30T21:59:59.884Z,23.98
2023-08-30T22:06:02.171Z,22.00
2023-08-30T22:12:07.859Z,22.05
2023-08-30T22:18:11.773Z,20.63
2023-08-30T22:24:14.023Z,20.02
2023-08-30T22:30:17.460Z,19.40
2023-08-30T22:36:21.240Z,23.00
2023-08-30T22:42:23.677Z,22.35
2023-08-30T22:48:25.692Z,25.92
2023-08-30T22:54:30.529Z,18.38
2023-08-30T23:00:32.743Z,23.73
2023-08-30T23:06:34.991Z,23.52
2023-08-30T23:12:39.187Z,22.52
2023-08-30T23:18:44.189Z,22.50
2023-08-30T23:24:46.323Z,27.58
2023-08-30T23:30:49.733Z,26.40
2023-08-30T23:36:53.010Z,24.88
2023-08-30T23:42:54.928Z,27.10
2023-08-30T23:48:58.411Z,29.48
2023-08-30T23:55:00.986Z,25.05
